sensor_id;sensor_type;location;lat;lon;timestamp;pressure;altitude;pressure_sealevel;temperature;humidity
3544;BME280;1786;52.870;9.578;2022-12-07T00:01:28;100350.72;;;14.14;58.31
3544;BME280;1786;52.870;9.578;2022-12-07T00:03:56;100345.72;;;14.21;58.00
3544;BME280;1786;52.870;9.578;2022-12-07T00:06:33;100348.38;;;13.89;58.75
3544;BME280;1786;52.870;9.578;2022-12-07T00:09:01;100346.69;;;14.52;57.91
3544;BME280;1786;52.870;9.578;2022-12-07T00:11:28;100341.06;;;14.66;57.72
3544;BME280;1786;52.870;9.578;2022-12-07T00:13:57;100338.63;;;14.42;58.57
3544;BME280;1786;52.870;9.578;2022-12-07T00:16:27;100337.69;;;14.11;59.01
3544;BME280;1786;52.870;9.578;2022-12-07T00:18:54;100329.41;;;14.58;58.20
3544;BME280;1786;52.870;9.578;2022-12-07T00:21:24;100334.16;;;14.43;58.23
3544;BME280;1786;52.870;9.578;2022-12-07T00:23:52;100326.03;;;14.77;57.54
3544;BME280;1786;52.870;9.578;2022-12-07T00:26:22;100331.81;;;14.82;57.59
3544;BME280;1786;52.870;9.578;2022-12-07T00:28:51;100336.06;;;14.94;57.06
3544;BME280;1786;52.870;9.578;2022-12-07T00:31:20;100327.72;;;14.78;57.13
3544;BME280;1786;52.870;9.578;2022-12-07T00:33:47;100321.84;;;15.05;56.70
3544;BME280;1786;52.870;9.578;2022-12-07T00:36:17;100324.63;;;15.03;56.95
3544;BME280;1786;52.870;9.578;2022-12-07T00:38:51;100316.22;;;14.98;56.95
3544;BME280;1786;52.870;9.578;2022-12-07T00:41:21;100321.91;;;15.14;56.97
3544;BME280;1786;52.870;9.578;2022-12-07T00:43:48;100329.91;;;15.24;56.62
3544;BME280;1786;52.870;9.578;2022-12-07T00:46:16;100326.47;;;15.74;55.76
3544;BME280;1786;52.870;9.578;2022-12-07T00:48:43;100315.84;;;15.84;55.49
3544;BME280;1786;52.870;9.578;2022-12-07T00:51:11;100316.28;;;16.08;55.01
3544;BME280;1786;52.870;9.578;2022-12-07T00:53:39;100310.38;;;16.05;54.96
3544;BME280;1786;52.870;9.578;2022-12-07T00:56:15;100305.19;;;16.22;54.66
3544;BME280;1786;52.870;9.578;2022-12-07T00:58:43;100300.00;;;16.40;54.44
3544;BME280;1786;52.870;9.578;2022-12-07T01:01:11;100295.41;;;16.23;54.64
3544;BME280;1786;52.870;9.578;2022-12-07T01:03:38;100303.91;;;15.97;55.31
3544;BME280;1786;52.870;9.578;2022-12-07T01:06:05;100298.88;;;16.04;55.11
3544;BME280;1786;52.870;9.578;2022-12-07T01:08:32;100299.19;;;16.11;54.93
3544;BME280;1786;52.870;9.578;2022-12-07T01:11:01;100298.59;;;16.17;54.81
3544;BME280;1786;52.870;9.578;2022-12-07T01:13:29;100296.50;;;15.91;55.10
3544;BME280;1786;52.870;9.578;2022-12-07T01:15:58;100293.28;;;16.17;54.48
3544;BME280;1786;52.870;9.578;2022-12-07T01:18:30;100285.97;;;16.38;54.15
3544;BME280;1786;52.870;9.578;2022-12-07T01:21:02;100285.09;;;15.79;55.13
3544;BME280;1786;52.870;9.578;2022-12-07T01:23:30;100279.88;;;15.68;55.01
3544;BME280;1786;52.870;9.578;2022-12-07T01:25:58;100277.69;;;15.83;54.74
3544;BME280;1786;52.870;9.578;2022-12-07T01:28:26;100281.50;;;15.90;54.40
3544;BME280;1786;52.870;9.578;2022-12-07T01:31:08;100289.28;;;15.63;55.08
3544;BME280;1786;52.870;9.578;2022-12-07T01:33:37;100276.88;;;15.32;55.65
3544;BME280;1786;52.870;9.578;2022-12-07T01:36:14;100289.09;;;15.54;55.30
3544;BME280;1786;52.870;9.578;2022-12-07T01:38:43;100275.53;;;15.57;55.07
3544;BME280;1786;52.870;9.578;2022-12-07T01:41:11;100284.19;;;15.50;56.38
3544;BME280;1786;52.870;9.578;2022-12-07T01:44:17;100277.09;;;15.70;55.09
3544;BME280;1786;52.870;9.578;2022-12-07T01:46:51;100277.91;;;15.61;55.07
3544;BME280;1786;52.870;9.578;2022-12-07T01:49:37;100280.72;;;15.19;56.39
3544;BME280;1786;52.870;9.578;2022-12-07T01:52:13;100275.91;;;15.03;56.48
3544;BME280;1786;52.870;9.578;2022-12-07T01:54:42;100270.81;;;14.48;57.55
3544;BME280;1786;52.870;9.578;2022-12-07T01:57:11;100261.63;;;14.52;57.02
3544;BME280;1786;52.870;9.578;2022-12-07T01:59:39;100268.59;;;14.95;56.29
3544;BME280;1786;52.870;9.578;2022-12-07T02:02:14;100265.13;;;14.74;55.91
3544;BME280;1786;52.870;9.578;2022-12-07T02:04:45;100264.03;;;14.34;56.87
3544;BME280;1786;52.870;9.578;2022-12-07T02:07:12;100256.41;;;14.62;56.31
3544;BME280;1786;52.870;9.578;2022-12-07T02:09:39;100261.94;;;14.59;56.04
3544;BME280;1786;52.870;9.578;2022-12-07T02:12:06;100257.06;;;14.85;55.39
3544;BME280;1786;52.870;9.578;2022-12-07T02:14:32;100263.88;;;14.78;55.53
3544;BME280;1786;52.870;9.578;2022-12-07T02:17:32;100260.13;;;14.38;56.10
3544;BME280;1786;52.870;9.578;2022-12-07T02:20:15;100256.69;;;14.26;56.26
3544;BME280;1786;52.870;9.578;2022-12-07T02:28:35;100237.91;;;14.60;55.44
3544;BME280;1786;52.870;9.578;2022-12-07T02:31:08;100239.06;;;14.67;55.67
3544;BME280;1786;52.870;9.578;2022-12-07T02:33:43;100251.63;;;14.23;56.62
3544;BME280;1786;52.870;9.578;2022-12-07T02:36:30;100235.47;;;14.15;56.64
3544;BME280;1786;52.870;9.578;2022-12-07T02:39:08;100238.94;;;14.27;56.42
3544;BME280;1786;52.870;9.578;2022-12-07T02:41:43;100236.25;;;14.06;56.42
3544;BME280;1786;52.870;9.578;2022-12-07T02:44:14;100239.41;;;14.84;54.72
3544;BME280;1786;52.870;9.578;2022-12-07T02:46:48;100234.84;;;14.44;55.76
3544;BME280;1786;52.870;9.578;2022-12-07T02:49:17;100234.25;;;14.61;54.52
3544;BME280;1786;52.870;9.578;2022-12-07T02:51:46;100232.25;;;14.75;54.15
3544;BME280;1786;52.870;9.578;2022-12-07T02:54:17;100234.13;;;14.42;55.21
3544;BME280;1786;52.870;9.578;2022-12-07T02:57:23;100234.69;;;14.45;55.04
3544;BME280;1786;52.870;9.578;2022-12-07T03:00:07;100233.69;;;14.88;54.02
3544;BME280;1786;52.870;9.578;2022-12-07T03:05:08;100233.97;;;14.55;54.85
3544;BME280;1786;52.870;9.578;2022-12-07T03:10:44;100234.84;;;14.44;54.57
3544;BME280;1786;52.870;9.578;2022-12-07T03:13:40;100238.13;;;14.78;54.14
3544;BME280;1786;52.870;9.578;2022-12-07T03:16:17;100237.19;;;14.58;54.20
3544;BME280;1786;52.870;9.578;2022-12-07T03:18:53;100247.00;;;14.88;53.34
3544;BME280;1786;52.870;9.578;2022-12-07T03:21:29;100236.97;;;14.08;54.73
3544;BME280;1786;52.870;9.578;2022-12-07T03:24:00;100243.59;;;14.35;54.69
3544;BME280;1786;52.870;9.578;2022-12-07T03:26:36;100249.69;;;14.25;54.61
3544;BME280;1786;52.870;9.578;2022-12-07T03:29:09;100243.66;;;14.65;53.82
3544;BME280;1786;52.870;9.578;2022-12-07T03:31:41;100250.13;;;14.31;54.53
3544;BME280;1786;52.870;9.578;2022-12-07T03:34:14;100240.63;;;14.49;53.77
3544;BME280;1786;52.870;9.578;2022-12-07T03:36:46;100243.41;;;14.26;54.72
3544;BME280;1786;52.870;9.578;2022-12-07T03:39:19;100243.06;;;14.20;54.54
3544;BME280;1786;52.870;9.578;2022-12-07T03:41:48;100248.81;;;14.57;53.98
3544;BME280;1786;52.870;9.578;2022-12-07T03:44:15;100243.06;;;14.41;54.31
3544;BME280;1786;52.870;9.578;2022-12-07T03:46:47;100236.97;;;14.50;54.33
3544;BME280;1786;52.870;9.578;2022-12-07T03:49:26;100240.66;;;14.38;54.69
3544;BME280;1786;52.870;9.578;2022-12-07T03:52:12;100244.88;;;14.82;53.86
3544;BME280;1786;52.870;9.578;2022-12-07T03:57:36;100252.03;;;14.19;55.05
3544;BME280;1786;52.870;9.578;2022-12-07T04:00:05;100242.69;;;14.45;55.09
3544;BME280;1786;52.870;9.578;2022-12-07T04:02:38;100244.28;;;14.16;55.20
3544;BME280;1786;52.870;9.578;2022-12-07T04:05:06;100252.59;;;14.43;55.07
3544;BME280;1786;52.870;9.578;2022-12-07T04:07:33;100256.41;;;14.71;54.79
3544;BME280;1786;52.870;9.578;2022-12-07T04:09:59;100250.94;;;14.63;54.78
3544;BME280;1786;52.870;9.578;2022-12-07T04:12:27;100250.47;;;14.58;54.74
3544;BME280;1786;52.870;9.578;2022-12-07T04:14:54;100253.06;;;14.27;55.31
3544;BME280;1786;52.870;9.578;2022-12-07T04:17:21;100250.22;;;14.61;55.02
3544;BME280;1786;52.870;9.578;2022-12-07T04:19:47;100247.72;;;14.48;54.87
3544;BME280;1786;52.870;9.578;2022-12-07T04:22:14;100246.25;;;14.35;55.34
3544;BME280;1786;52.870;9.578;2022-12-07T04:24:41;100242.03;;;14.11;55.82
3544;BME280;1786;52.870;9.578;2022-12-07T04:27:08;100243.28;;;14.70;54.78
3544;BME280;1786;52.870;9.578;2022-12-07T04:29:35;100240.94;;;14.56;55.06
3544;BME280;1786;52.870;9.578;2022-12-07T04:32:01;100249.28;;;14.51;55.18
3544;BME280;1786;52.870;9.578;2022-12-07T04:34:28;100232.13;;;14.55;54.87
3544;BME280;1786;52.870;9.578;2022-12-07T04:36:55;100240.50;;;14.81;54.61
3544;BME280;1786;52.870;9.578;2022-12-07T04:39:28;100233.19;;;15.04;53.83
3544;BME280;1786;52.870;9.578;2022-12-07T04:41:56;100235.16;;;14.71;54.76
3544;BME280;1786;52.870;9.578;2022-12-07T04:44:23;100241.00;;;14.65;54.75
3544;BME280;1786;52.870;9.578;2022-12-07T04:46:51;100242.16;;;14.73;55.06
3544;BME280;1786;52.870;9.578;2022-12-07T04:49:18;100236.13;;;14.49;55.29
3544;BME280;1786;52.870;9.578;2022-12-07T04:51:45;100233.78;;;14.77;54.46
3544;BME280;1786;52.870;9.578;2022-12-07T04:54:13;100233.22;;;14.32;55.39
3544;BME280;1786;52.870;9.578;2022-12-07T04:56:41;100232.75;;;14.68;55.03
3544;BME280;1786;52.870;9.578;2022-12-07T04:59:09;100231.19;;;14.87;54.75
3544;BME280;1786;52.870;9.578;2022-12-07T05:01:37;100226.22;;;14.52;55.19
3544;BME280;1786;52.870;9.578;2022-12-07T05:04:04;100225.31;;;14.93;54.56
3544;BME280;1786;52.870;9.578;2022-12-07T05:06:31;100219.63;;;14.67;54.70
3544;BME280;1786;52.870;9.578;2022-12-07T05:08:59;100222.94;;;14.90;53.90
3544;BME280;1786;52.870;9.578;2022-12-07T05:11:25;100232.94;;;15.07;53.86
3544;BME280;1786;52.870;9.578;2022-12-07T05:16:38;100235.28;;;15.01;53.84
3544;BME280;1786;52.870;9.578;2022-12-07T05:19:06;100241.19;;;15.14;53.72
3544;BME280;1786;52.870;9.578;2022-12-07T05:21:34;100241.13;;;15.25;53.32
3544;BME280;1786;52.870;9.578;2022-12-07T05:24:01;100251.66;;;15.46;52.98
3544;BME280;1786;52.870;9.578;2022-12-07T05:26:28;100249.44;;;15.51;53.09
3544;BME280;1786;52.870;9.578;2022-12-07T05:28:56;100250.53;;;15.39;53.17
3544;BME280;1786;52.870;9.578;2022-12-07T05:31:24;100253.94;;;15.61;53.03
3544;BME280;1786;52.870;9.578;2022-12-07T05:33:51;100257.50;;;15.71;52.97
3544;BME280;1786;52.870;9.578;2022-12-07T05:36:18;100261.03;;;16.00;52.24
3544;BME280;1786;52.870;9.578;2022-12-07T05:38:46;100254.69;;;16.01;52.19
3544;BME280;1786;52.870;9.578;2022-12-07T05:41:18;100252.88;;;16.21;51.94
3544;BME280;1786;52.870;9.578;2022-12-07T05:44:04;100255.94;;;16.17;51.95
3544;BME280;1786;52.870;9.578;2022-12-07T05:46:31;100249.06;;;16.24;51.95
3544;BME280;1786;52.870;9.578;2022-12-07T05:48:58;100253.91;;;16.58;51.47
3544;BME280;1786;52.870;9.578;2022-12-07T05:51:44;100244.63;;;16.81;51.23
3544;BME280;1786;52.870;9.578;2022-12-07T05:54:11;100239.28;;;16.81;50.94
3544;BME280;1786;52.870;9.578;2022-12-07T05:56:38;100233.78;;;16.83;50.99
3544;BME280;1786;52.870;9.578;2022-12-07T05:59:04;100232.50;;;16.97;50.60
3544;BME280;1786;52.870;9.578;2022-12-07T06:04:17;100220.19;;;16.76;50.83
3544;BME280;1786;52.870;9.578;2022-12-07T06:06:44;100224.69;;;16.76;51.16
3544;BME280;1786;52.870;9.578;2022-12-07T06:09:11;100217.88;;;16.54;51.16
3544;BME280;1786;52.870;9.578;2022-12-07T06:11:39;100211.03;;;16.32;51.67
3544;BME280;1786;52.870;9.578;2022-12-07T06:14:25;100227.56;;;16.45;51.30
3544;BME280;1786;52.870;9.578;2022-12-07T06:16:51;100229.88;;;16.11;51.90
3544;BME280;1786;52.870;9.578;2022-12-07T06:19:18;100230.94;;;15.40;52.88
3544;BME280;1786;52.870;9.578;2022-12-07T06:21:45;100244.38;;;15.48;53.06
3544;BME280;1786;52.870;9.578;2022-12-07T06:24:13;100233.75;;;15.48;53.23
3544;BME280;1786;52.870;9.578;2022-12-07T06:26:40;100235.59;;;15.57;53.06
3544;BME280;1786;52.870;9.578;2022-12-07T06:29:07;100233.22;;;15.74;52.65
3544;BME280;1786;52.870;9.578;2022-12-07T06:31:35;100238.97;;;15.79;52.67
3544;BME280;1786;52.870;9.578;2022-12-07T06:34:05;100235.47;;;15.19;53.36
3544;BME280;1786;52.870;9.578;2022-12-07T06:36:32;100235.72;;;15.06;53.88
3544;BME280;1786;52.870;9.578;2022-12-07T06:38:59;100234.41;;;14.90;54.43
3544;BME280;1786;52.870;9.578;2022-12-07T06:41:26;100236.19;;;14.17;55.61
3544;BME280;1786;52.870;9.578;2022-12-07T06:43:54;100240.34;;;14.52;55.31
3544;BME280;1786;52.870;9.578;2022-12-07T06:46:22;100246.88;;;14.59;55.12
3544;BME280;1786;52.870;9.578;2022-12-07T06:48:50;100246.97;;;14.58;54.98
3544;BME280;1786;52.870;9.578;2022-12-07T06:51:16;100251.97;;;14.72;54.75
3544;BME280;1786;52.870;9.578;2022-12-07T06:53:43;100258.28;;;14.39;55.11
3544;BME280;1786;52.870;9.578;2022-12-07T06:56:10;100247.31;;;14.64;55.01
3544;BME280;1786;52.870;9.578;2022-12-07T06:58:36;100237.88;;;14.18;55.37
3544;BME280;1786;52.870;9.578;2022-12-07T07:01:09;100239.13;;;14.14;55.46
3544;BME280;1786;52.870;9.578;2022-12-07T07:03:36;100239.25;;;13.80;55.64
3544;BME280;1786;52.870;9.578;2022-12-07T07:06:05;100236.66;;;13.69;56.82
3544;BME280;1786;52.870;9.578;2022-12-07T07:08:33;100217.88;;;13.61;56.60
3544;BME280;1786;52.870;9.578;2022-12-07T07:11:00;100214.88;;;13.87;56.20
3544;BME280;1786;52.870;9.578;2022-12-07T07:13:27;100216.84;;;14.26;55.26
3544;BME280;1786;52.870;9.578;2022-12-07T07:15:54;100226.69;;;14.57;54.13
3544;BME280;1786;52.870;9.578;2022-12-07T07:18:22;100228.53;;;14.45;54.42
3544;BME280;1786;52.870;9.578;2022-12-07T07:20:50;100238.66;;;14.51;54.20
3544;BME280;1786;52.870;9.578;2022-12-07T07:23:18;100234.13;;;14.00;55.00
3544;BME280;1786;52.870;9.578;2022-12-07T07:25:45;100237.56;;;14.33;54.43
3544;BME280;1786;52.870;9.578;2022-12-07T07:28:12;100242.28;;;14.50;54.46
3544;BME280;1786;52.870;9.578;2022-12-07T07:30:39;100242.13;;;14.63;53.75
3544;BME280;1786;52.870;9.578;2022-12-07T07:33:06;100242.69;;;14.66;53.46
3544;BME280;1786;52.870;9.578;2022-12-07T07:35:33;100239.91;;;14.68;53.70
3544;BME280;1786;52.870;9.578;2022-12-07T07:38:01;100234.56;;;14.05;54.60
3544;BME280;1786;52.870;9.578;2022-12-07T07:40:28;100237.44;;;14.55;54.07
3544;BME280;1786;52.870;9.578;2022-12-07T07:42:55;100237.50;;;14.44;53.79
3544;BME280;1786;52.870;9.578;2022-12-07T07:45:24;100248.84;;;14.25;54.14
3544;BME280;1786;52.870;9.578;2022-12-07T07:47:52;100251.63;;;14.44;54.24
3544;BME280;1786;52.870;9.578;2022-12-07T07:50:19;100252.09;;;14.49;54.06
3544;BME280;1786;52.870;9.578;2022-12-07T07:52:47;100254.13;;;14.57;53.96
3544;BME280;1786;52.870;9.578;2022-12-07T07:55:14;100255.53;;;14.61;53.88
3544;BME280;1786;52.870;9.578;2022-12-07T07:57:41;100261.31;;;14.97;53.22
3544;BME280;1786;52.870;9.578;2022-12-07T08:00:10;100258.13;;;14.52;53.93
3544;BME280;1786;52.870;9.578;2022-12-07T08:02:38;100256.56;;;14.49;54.10
3544;BME280;1786;52.870;9.578;2022-12-07T08:05:06;100253.06;;;14.69;54.22
3544;BME280;1786;52.870;9.578;2022-12-07T08:07:32;100260.41;;;14.77;53.77
3544;BME280;1786;52.870;9.578;2022-12-07T08:09:59;100252.59;;;14.43;54.60
3544;BME280;1786;52.870;9.578;2022-12-07T08:12:27;100257.91;;;14.01;55.63
3544;BME280;1786;52.870;9.578;2022-12-07T08:14:54;100259.00;;;13.99;55.20
3544;BME280;1786;52.870;9.578;2022-12-07T08:17:20;100254.50;;;14.32;55.41
3544;BME280;1786;52.870;9.578;2022-12-07T08:19:47;100254.03;;;14.47;54.83
3544;BME280;1786;52.870;9.578;2022-12-07T08:22:13;100260.53;;;14.55;55.12
3544;BME280;1786;52.870;9.578;2022-12-07T08:24:40;100264.44;;;14.81;54.34
3544;BME280;1786;52.870;9.578;2022-12-07T08:27:07;100261.84;;;14.91;54.73
3544;BME280;1786;52.870;9.578;2022-12-07T08:29:33;100264.53;;;14.49;54.84
3544;BME280;1786;52.870;9.578;2022-12-07T08:32:00;100266.31;;;14.90;54.50
3544;BME280;1786;52.870;9.578;2022-12-07T08:34:34;100266.41;;;15.10;53.89
3544;BME280;1786;52.870;9.578;2022-12-07T08:37:02;100268.16;;;15.30;53.79
3544;BME280;1786;52.870;9.578;2022-12-07T08:39:29;100261.16;;;15.39;53.52
3544;BME280;1786;52.870;9.578;2022-12-07T08:41:58;100268.84;;;15.23;53.89
3544;BME280;1786;52.870;9.578;2022-12-07T08:44:25;100264.75;;;15.19;54.26
3544;BME280;1786;52.870;9.578;2022-12-07T08:46:58;100272.47;;;14.91;54.64
3544;BME280;1786;52.870;9.578;2022-12-07T08:49:29;100273.91;;;14.95;54.36
3544;BME280;1786;52.870;9.578;2022-12-07T08:51:58;100264.09;;;14.44;55.55
3544;BME280;1786;52.870;9.578;2022-12-07T08:54:24;100268.25;;;14.58;55.42
3544;BME280;1786;52.870;9.578;2022-12-07T08:56:53;100262.38;;;14.85;55.03
3544;BME280;1786;52.870;9.578;2022-12-07T08:59:26;100267.88;;;14.62;55.51
3544;BME280;1786;52.870;9.578;2022-12-07T09:01:54;100260.00;;;14.82;55.17
3544;BME280;1786;52.870;9.578;2022-12-07T09:04:20;100260.28;;;14.58;55.71
3544;BME280;1786;52.870;9.578;2022-12-07T09:06:48;100266.81;;;15.05;54.98
3544;BME280;1786;52.870;9.578;2022-12-07T09:09:15;100271.09;;;14.87;54.83
3544;BME280;1786;52.870;9.578;2022-12-07T09:11:42;100262.00;;;15.30;54.27
3544;BME280;1786;52.870;9.578;2022-12-07T09:14:11;100260.94;;;15.62;53.83
3544;BME280;1786;52.870;9.578;2022-12-07T09:16:39;100268.69;;;15.14;54.26
3544;BME280;1786;52.870;9.578;2022-12-07T09:19:07;100265.19;;;15.24;54.17
3544;BME280;1786;52.870;9.578;2022-12-07T09:21:34;100265.94;;;14.95;54.64
3544;BME280;1786;52.870;9.578;2022-12-07T09:24:01;100271.38;;;14.93;54.72
3544;BME280;1786;52.870;9.578;2022-12-07T09:26:28;100265.00;;;15.06;54.45
3544;BME280;1786;52.870;9.578;2022-12-07T09:28:55;100272.38;;;15.33;54.23
3544;BME280;1786;52.870;9.578;2022-12-07T09:31:22;100279.09;;;15.37;54.49
3544;BME280;1786;52.870;9.578;2022-12-07T09:33:56;100275.13;;;15.12;54.72
3544;BME280;1786;52.870;9.578;2022-12-07T09:36:23;100269.16;;;14.99;55.08
3544;BME280;1786;52.870;9.578;2022-12-07T09:38:51;100265.97;;;14.32;56.14
3544;BME280;1786;52.870;9.578;2022-12-07T09:41:18;100280.56;;;14.80;55.33
3544;BME280;1786;52.870;9.578;2022-12-07T09:43:45;100267.44;;;14.88;55.07
3544;BME280;1786;52.870;9.578;2022-12-07T09:46:15;100270.63;;;15.12;54.76
3544;BME280;1786;52.870;9.578;2022-12-07T09:48:43;100266.22;;;15.32;53.78
3544;BME280;1786;52.870;9.578;2022-12-07T09:51:16;100272.91;;;15.17;54.53
3544;BME280;1786;52.870;9.578;2022-12-07T09:53:52;100261.56;;;14.94;55.25
3544;BME280;1786;52.870;9.578;2022-12-07T09:56:20;100267.88;;;14.62;55.45
3544;BME280;1786;52.870;9.578;2022-12-07T09:58:48;100272.97;;;15.06;54.83
3544;BME280;1786;52.870;9.578;2022-12-07T10:01:34;100274.69;;;14.86;55.02
3544;BME280;1786;52.870;9.578;2022-12-07T10:04:12;100271.97;;;14.97;54.96
3544;BME280;1786;52.870;9.578;2022-12-07T10:06:41;100268.28;;;15.29;54.46
3544;BME280;1786;52.870;9.578;2022-12-07T10:09:19;100269.03;;;15.41;54.04
3544;BME280;1786;52.870;9.578;2022-12-07T10:14:36;100260.25;;;15.09;54.33
3544;BME280;1786;52.870;9.578;2022-12-07T10:17:31;100259.56;;;14.86;54.92
3544;BME280;1786;52.870;9.578;2022-12-07T10:22:38;100247.63;;;15.11;54.54
3544;BME280;1786;52.870;9.578;2022-12-07T10:25:18;100255.56;;;15.32;54.24
3544;BME280;1786;52.870;9.578;2022-12-07T10:27:57;100256.69;;;15.30;54.07
3544;BME280;1786;52.870;9.578;2022-12-07T10:30:24;100253.25;;;15.08;54.75
3544;BME280;1786;52.870;9.578;2022-12-07T10:32:51;100249.50;;;15.21;54.11
3544;BME280;1786;52.870;9.578;2022-12-07T10:37:48;100257.91;;;15.76;53.69
3544;BME280;1786;52.870;9.578;2022-12-07T10:45:32;100257.56;;;15.59;53.77
3544;BME280;1786;52.870;9.578;2022-12-07T10:48:26;100251.81;;;15.45;53.76
3544;BME280;1786;52.870;9.578;2022-12-07T10:51:02;100257.16;;;15.14;53.66
3544;BME280;1786;52.870;9.578;2022-12-07T10:53:39;100254.44;;;15.35;53.78
3544;BME280;1786;52.870;9.578;2022-12-07T10:56:32;100245.84;;;15.12;54.33
3544;BME280;1786;52.870;9.578;2022-12-07T11:04:43;100242.16;;;15.53;53.85
3544;BME280;1786;52.870;9.578;2022-12-07T11:07:43;100240.50;;;16.30;52.61
3544;BME280;1786;52.870;9.578;2022-12-07T11:10:43;100231.69;;;15.81;53.13
3544;BME280;1786;52.870;9.578;2022-12-07T11:35:11;100213.31;;;15.08;54.33
3544;BME280;1786;52.870;9.578;2022-12-07T11:37:42;100213.13;;;14.90;53.88
3544;BME280;1786;52.870;9.578;2022-12-07T11:42:44;100208.69;;;15.01;54.26
3544;BME280;1786;52.870;9.578;2022-12-07T11:45:20;100210.50;;;15.70;53.47
3544;BME280;1786;52.870;9.578;2022-12-07T11:47:57;100200.13;;;15.47;53.42
3544;BME280;1786;52.870;9.578;2022-12-07T11:50:38;100202.41;;;16.00;52.42
3544;BME280;1786;52.870;9.578;2022-12-07T11:55:54;100198.72;;;16.68;51.65
3544;BME280;1786;52.870;9.578;2022-12-07T11:58:36;100195.91;;;16.79;51.18
3544;BME280;1786;52.870;9.578;2022-12-07T12:04:00;100194.22;;;16.12;52.08
3544;BME280;1786;52.870;9.578;2022-12-07T12:06:28;100187.06;;;16.22;52.21
3544;BME280;1786;52.870;9.578;2022-12-07T12:09:14;100184.97;;;16.26;52.42
3544;BME280;1786;52.870;9.578;2022-12-07T12:18:09;100193.53;;;17.32;50.24
3544;BME280;1786;52.870;9.578;2022-12-07T12:23:22;100184.00;;;17.47;50.37
3544;BME280;1786;52.870;9.578;2022-12-07T12:25:57;100173.66;;;17.16;51.23
3544;BME280;1786;52.870;9.578;2022-12-07T12:33:37;100171.03;;;17.52;50.12
3544;BME280;1786;52.870;9.578;2022-12-07T12:36:20;100171.41;;;17.39;50.27
3544;BME280;1786;52.870;9.578;2022-12-07T12:46:49;100159.69;;;17.04;50.86
3544;BME280;1786;52.870;9.578;2022-12-07T12:51:51;100170.88;;;17.08;50.65
3544;BME280;1786;52.870;9.578;2022-12-07T12:56:55;100169.31;;;17.15;50.18
3544;BME280;1786;52.870;9.578;2022-12-07T12:59:28;100168.09;;;17.27;49.69
3544;BME280;1786;52.870;9.578;2022-12-07T13:02:26;100160.00;;;17.19;49.95
3544;BME280;1786;52.870;9.578;2022-12-07T13:07:50;100150.22;;;17.10;49.90
3544;BME280;1786;52.870;9.578;2022-12-07T13:15:52;100158.06;;;16.94;50.53
3544;BME280;1786;52.870;9.578;2022-12-07T13:21:02;100145.44;;;16.01;51.85
3544;BME280;1786;52.870;9.578;2022-12-07T13:28:47;100133.00;;;15.83;52.85
3544;BME280;1786;52.870;9.578;2022-12-07T13:31:33;100144.91;;;15.88;52.48
3544;BME280;1786;52.870;9.578;2022-12-07T13:34:02;100143.50;;;15.45;52.52
3544;BME280;1786;52.870;9.578;2022-12-07T13:36:39;100140.38;;;14.40;53.58
3544;BME280;1786;52.870;9.578;2022-12-07T13:39:24;100145.34;;;14.85;52.79
3544;BME280;1786;52.870;9.578;2022-12-07T13:41:53;100150.72;;;14.64;53.42
3544;BME280;1786;52.870;9.578;2022-12-07T13:44:22;100146.97;;;15.36;52.10
3544;BME280;1786;52.870;9.578;2022-12-07T13:47:16;100153.50;;;14.93;52.27
3544;BME280;1786;52.870;9.578;2022-12-07T13:49:54;100151.84;;;15.11;52.11
3544;BME280;1786;52.870;9.578;2022-12-07T13:52:29;100137.06;;;14.47;53.44
3544;BME280;1786;52.870;9.578;2022-12-07T13:54:58;100130.78;;;14.89;52.85
3544;BME280;1786;52.870;9.578;2022-12-07T13:57:29;100126.00;;;14.42;54.06
3544;BME280;1786;52.870;9.578;2022-12-07T13:59:57;100139.47;;;14.91;52.77
3544;BME280;1786;52.870;9.578;2022-12-07T14:02:29;100145.84;;;15.09;53.10
3544;BME280;1786;52.870;9.578;2022-12-07T14:07:35;100143.44;;;15.06;52.91
3544;BME280;1786;52.870;9.578;2022-12-07T14:10:05;100155.81;;;15.56;52.03
3544;BME280;1786;52.870;9.578;2022-12-07T14:12:35;100145.56;;;15.22;52.78
3544;BME280;1786;52.870;9.578;2022-12-07T14:15:03;100144.72;;;14.71;53.52
3544;BME280;1786;52.870;9.578;2022-12-07T14:17:31;100142.53;;;14.77;52.88
3544;BME280;1786;52.870;9.578;2022-12-07T14:19:59;100141.50;;;15.28;51.65
3544;BME280;1786;52.870;9.578;2022-12-07T14:27:47;100158.38;;;15.77;50.45
3544;BME280;1786;52.870;9.578;2022-12-07T14:30:16;100150.75;;;16.01;50.05
3544;BME280;1786;52.870;9.578;2022-12-07T14:32:43;100150.47;;;16.05;49.96
3544;BME280;1786;52.870;9.578;2022-12-07T14:35:16;100154.81;;;16.15;49.92
3544;BME280;1786;52.870;9.578;2022-12-07T14:37:46;100159.16;;;16.07;49.98
3544;BME280;1786;52.870;9.578;2022-12-07T14:40:15;100160.81;;;16.17;49.76
3544;BME280;1786;52.870;9.578;2022-12-07T14:42:44;100157.41;;;16.35;49.44
3544;BME280;1786;52.870;9.578;2022-12-07T14:45:17;100147.81;;;16.05;49.50
3544;BME280;1786;52.870;9.578;2022-12-07T14:47:44;100150.38;;;16.43;48.80
3544;BME280;1786;52.870;9.578;2022-12-07T14:50:35;100145.34;;;16.40;48.89
3544;BME280;1786;52.870;9.578;2022-12-07T14:53:13;100150.88;;;16.57;48.52
3544;BME280;1786;52.870;9.578;2022-12-07T14:55:48;100144.28;;;16.61;48.42
3544;BME280;1786;52.870;9.578;2022-12-07T14:58:17;100148.03;;;16.68;48.25
3544;BME280;1786;52.870;9.578;2022-12-07T15:00:44;100152.75;;;16.47;48.79
3544;BME280;1786;52.870;9.578;2022-12-07T15:03:11;100147.69;;;15.96;49.38
3544;BME280;1786;52.870;9.578;2022-12-07T15:05:40;100146.72;;;16.44;48.74
3544;BME280;1786;52.870;9.578;2022-12-07T15:08:11;100155.50;;;16.64;48.41
3544;BME280;1786;52.870;9.578;2022-12-07T15:10:39;100147.34;;;16.66;48.24
3544;BME280;1786;52.870;9.578;2022-12-07T15:13:07;100151.63;;;16.86;48.29
3544;BME280;1786;52.870;9.578;2022-12-07T15:15:54;100152.78;;;16.74;48.31
3544;BME280;1786;52.870;9.578;2022-12-07T15:18:22;100161.22;;;16.79;48.25
3544;BME280;1786;52.870;9.578;2022-12-07T15:20:50;100159.09;;;16.46;48.60
3544;BME280;1786;52.870;9.578;2022-12-07T15:23:16;100162.75;;;16.35;49.00
3544;BME280;1786;52.870;9.578;2022-12-07T15:25:45;100160.00;;;16.17;49.34
3544;BME280;1786;52.870;9.578;2022-12-07T15:28:12;100156.13;;;15.82;49.84
3544;BME280;1786;52.870;9.578;2022-12-07T15:30:40;100153.97;;;15.47;50.52